Time;durP1;ratioP1;P1;durP2;ratioP2;P2;SDS_P1;SDS_P2;PMS_P1;PMS_P2;Temp;Humidity;BMP_temperature;BMP_pressure;BME280_temperature;BME280_humidity;BME280_pressure;Samples;Min_cycle;Max_cycle;Signal;HPM_P1;HPM_P2
2023/01/25 00:02:12;;;;;;;;;31.50;26.50;;;;;6.88;100.00;103231.34;5019146;28;45495;-71
2023/01/25 00:04:37;;;;;;;;;27.50;22.75;;;;;6.88;100.00;103228.72;5037892;28;60988;-71
2023/01/25 00:07:03;;;;;;;;;33.75;30.00;;;;;6.90;100.00;103237.59;5035889;28;53487;-71
2023/01/25 00:09:29;;;;;;;;;27.50;25.75;;;;;6.91;100.00;103231.53;5017575;28;45574;-72
2023/01/25 00:11:56;;;;;;;;;28.75;25.00;;;;;6.91;100.00;103225.38;5035387;28;45592;-71
2023/01/25 00:14:22;;;;;;;;;37.00;25.25;;;;;6.91;100.00;103228.00;5033310;28;46621;-71
2023/01/25 00:16:47;;;;;;;;;25.50;16.75;;;;;6.91;100.00;103222.75;5035936;28;45513;-71
2023/01/25 00:19:12;;;;;;;;;32.00;22.75;;;;;6.92;100.00;103219.28;5032735;28;45433;-70
2023/01/25 00:21:38;;;;;;;;;23.75;22.25;;;;;6.91;100.00;103233.25;5036309;28;53228;-70
2023/01/25 00:24:04;;;;;;;;;32.25;23.75;;;;;6.89;100.00;103234.88;5011121;28;51027;-71
2023/01/25 00:26:33;;;;;;;;;36.50;26.75;;;;;6.89;100.00;103224.38;5018563;28;46133;-73
2023/01/25 00:28:59;;;;;;;;;35.25;28.00;;;;;6.91;100.00;103225.38;5013775;28;45444;-71
2023/01/25 00:31:33;;;;;;;;;44.00;30.25;;;;;6.92;100.00;103232.44;5036851;28;45348;-71
2023/01/25 00:34:25;;;;;;;;;30.00;23.50;;;;;6.93;100.00;103227.28;5032629;28;46886;-73
2023/01/25 00:36:57;;;;;;;;;39.25;25.25;;;;;6.91;100.00;103221.00;4999387;28;45441;-71
2023/01/25 00:39:24;;;;;;;;;26.75;21.00;;;;;6.93;100.00;103227.28;5036116;28;45479;-71
2023/01/25 00:41:49;;;;;;;;;40.00;26.75;;;;;6.89;100.00;103222.66;5015337;28;45592;-70
2023/01/25 00:44:15;;;;;;;;;34.50;24.50;;;;;6.88;100.00;103214.69;5017569;28;56717;-72
2023/01/25 00:46:40;;;;;;;;;40.75;27.00;;;;;6.86;100.00;103219.81;5034618;28;56950;-70
2023/01/25 00:49:06;;;;;;;;;38.75;30.50;;;;;6.85;100.00;103219.72;5036325;28;45408;-72
2023/01/25 00:51:33;;;;;;;;;37.50;30.50;;;;;6.88;100.00;103222.56;5016844;28;45408;-72
2023/01/25 00:53:58;;;;;;;;;45.75;31.00;;;;;6.88;100.00;103219.94;5017873;28;45562;-72
2023/01/25 00:56:23;;;;;;;;;45.75;33.00;;;;;6.88;100.00;103210.34;5035398;28;59449;-71
2023/01/25 00:58:49;;;;;;;;;35.75;27.00;;;;;6.89;100.00;103216.50;5035496;28;45394;-71
2023/01/25 01:01:14;;;;;;;;;33.25;27.00;;;;;6.91;100.00;103212.22;5036211;28;45478;-72
2023/01/25 01:03:39;;;;;;;;;40.00;29.00;;;;;6.88;100.00;103206.81;5034757;28;59258;-72
2023/01/25 01:06:08;;;;;;;;;40.75;25.50;;;;;6.87;100.00;103212.84;5034811;28;45518;-73
2023/01/25 01:08:35;;;;;;;;;31.00;27.25;;;;;6.83;100.00;103201.25;5017820;28;45420;-71
2023/01/25 01:11:01;;;;;;;;;29.50;26.50;;;;;6.85;100.00;103209.22;5033390;28;45490;-71
2023/01/25 01:13:28;;;;;;;;;38.50;28.50;;;;;6.85;100.00;103211.84;5016948;28;46664;-70
2023/01/25 01:15:53;;;;;;;;;43.50;32.75;;;;;6.88;100.00;103212.97;5001039;28;45401;-71
2023/01/25 01:18:18;;;;;;;;;44.75;33.75;;;;;6.87;100.00;103199.72;5017525;28;45816;-71
2023/01/25 01:20:49;;;;;;;;;51.75;34.25;;;;;6.86;100.00;103197.91;5029906;28;45483;-72
2023/01/25 01:23:14;;;;;;;;;37.75;29.00;;;;;6.85;100.00;103206.59;5025386;28;46654;-71
2023/01/25 01:25:39;;;;;;;;;30.25;25.50;;;;;6.86;100.00;103205.78;5026334;28;49368;-73
2023/01/25 01:28:05;;;;;;;;;37.75;30.00;;;;;6.86;100.00;103200.53;5017155;28;55488;-72
2023/01/25 01:30:30;;;;;;;;;31.50;24.00;;;;;6.85;100.00;103203.97;5032757;28;54593;-71
2023/01/25 01:32:55;;;;;;;;;41.25;33.00;;;;;6.86;100.00;103197.91;5030522;28;46673;-71
2023/01/25 01:35:21;;;;;;;;;41.25;33.25;;;;;6.87;100.00;103207.59;5034096;28;55269;-71
2023/01/25 01:37:46;;;;;;;;;39.00;31.00;;;;;6.86;100.00;103206.69;5034847;28;53189;-72
2023/01/25 01:40:15;;;;;;;;;30.25;28.50;;;;;6.87;100.00;103210.22;5035336;28;52546;-71
2023/01/25 01:43:04;;;;;;;;;46.00;27.75;;;;;6.83;100.00;103206.50;5031706;28;47589;-70
2023/01/25 01:46:03;;;;;;;;;35.25;24.75;;;;;6.86;100.00;103211.03;5014660;28;45394;-71
2023/01/25 01:48:45;;;;;;;;;31.00;24.50;;;;;6.85;100.00;103210.13;5015662;28;45286;-71
2023/01/25 01:51:16;;;;;;;;;42.25;30.25;;;;;6.85;100.00;103210.13;5009575;28;45290;-73
2023/01/25 01:53:45;;;;;;;;;54.50;38.25;;;;;6.83;100.00;103206.50;5034941;28;46580;-73
2023/01/25 01:56:14;;;;;;;;;37.00;29.00;;;;;6.86;100.00;103221.53;5016305;28;45411;-71
2023/01/25 01:58:40;;;;;;;;;38.75;30.00;;;;;6.85;100.00;103224.97;5012815;28;45498;-71
2023/01/25 02:01:05;;;;;;;;;49.00;39.00;;;;;6.83;100.00;103228.41;5014556;28;56242;-72
2023/01/25 02:03:32;;;;;;;;;48.75;37.50;;;;;6.82;100.00;103225.69;5034062;28;61174;-72
2023/01/25 02:06:04;;;;;;;;;43.75;34.75;;;;;6.78;100.00;103227.22;5034291;28;60229;-73
2023/01/25 02:08:31;;;;;;;;;31.50;25.00;;;;;6.77;100.00;103228.03;5014927;28;45380;-70
2023/01/25 02:10:57;;;;;;;;;42.50;31.25;;;;;6.77;100.00;103228.03;5017148;28;45434;-71
2023/01/25 02:13:23;;;;;;;;;37.50;28.75;;;;;6.80;100.00;103235.19;5015616;28;46799;-70
2023/01/25 02:15:50;;;;;;;;;40.75;30.50;;;;;6.80;100.00;103222.03;5034669;28;51198;-72
2023/01/25 02:18:18;;;;;;;;;53.00;39.25;;;;;6.80;100.00;103222.03;5035093;28;45459;-71
2023/01/25 02:20:45;;;;;;;;;54.50;38.50;;;;;6.80;100.00;103219.41;5015514;28;45424;-71
2023/01/25 02:23:29;;;;;;;;;53.50;36.50;;;;;6.80;100.00;103227.31;5017162;28;45750;-71
2023/01/25 02:25:57;;;;;;;;;43.00;31.50;;;;;6.76;100.00;103222.66;5032720;28;45346;-71
2023/01/25 02:28:29;;;;;;;;;44.25;33.25;;;;;6.74;100.00;103233.06;5018168;28;45309;-73
2023/01/25 02:30:55;;;;;;;;;40.50;30.00;;;;;6.74;100.00;103227.81;5020074;28;45392;-71
2023/01/25 02:33:25;;;;;;;;;40.25;33.50;;;;;6.75;100.00;103229.63;5020407;28;55200;-73
2023/01/25 02:36:14;;;;;;;;;44.50;30.25;;;;;6.77;100.00;103229.75;5011771;28;45507;-70
2023/01/25 02:38:56;;;;;;;;;48.75;34.75;;;;;6.77;100.00;103240.25;5020560;28;45523;-71
2023/01/25 02:41:32;;;;;;;;;43.50;30.50;;;;;6.77;100.00;103235.00;5020444;28;45570;-72
2023/01/25 02:43:59;;;;;;;;;36.50;30.00;;;;;6.77;100.00;103230.66;5018324;28;45860;-71
2023/01/25 02:46:30;;;;;;;;;47.25;31.75;;;;;6.74;100.00;103230.44;5020021;28;45337;-70
2023/01/25 02:48:57;;;;;;;;;41.75;31.75;;;;;6.74;100.00;103235.69;5020166;28;45418;-73
2023/01/25 02:51:24;;;;;;;;;46.00;29.00;;;;;6.71;100.00;103225.00;5029841;28;45475;-71
2023/01/25 02:53:50;;;;;;;;;56.50;36.25;;;;;6.73;100.00;103233.88;5016569;28;46656;-71
2023/01/25 02:56:15;;;;;;;;;49.00;37.25;;;;;6.75;100.00;103232.25;5037998;28;45450;-71
2023/01/25 02:58:41;;;;;;;;;56.25;39.00;;;;;6.73;100.00;103228.63;5019514;28;45309;-71
2023/01/25 03:01:06;;;;;;;;;40.75;35.25;;;;;6.76;100.00;103230.53;5019995;28;51668;-71
2023/01/25 03:03:32;;;;;;;;;39.25;32.75;;;;;6.74;100.00;103217.31;5037734;28;46355;-70
2023/01/25 03:05:57;;;;;;;;;49.25;37.50;;;;;6.76;100.00;103225.28;5036731;28;54036;-71
2023/01/25 03:08:22;;;;;;;;;40.25;32.25;;;;;6.72;100.00;103224.19;5035473;28;51811;-71
2023/01/25 03:10:48;;;;;;;;;48.00;33.50;;;;;6.71;100.00;103225.00;5038118;28;45499;-74
2023/01/25 03:13:13;;;;;;;;;50.75;34.00;;;;;6.68;100.00;103216.91;5032957;28;46581;-73
2023/01/25 03:15:39;;;;;;;;;43.25;35.50;;;;;6.68;100.00;103208.13;5034712;28;57703;-71
2023/01/25 03:18:04;;;;;;;;;35.25;24.75;;;;;6.65;100.00;103214.06;5037192;28;45664;-72
2023/01/25 03:20:29;;;;;;;;;46.00;34.25;;;;;6.66;100.00;103223.78;5037083;28;46550;-71
2023/01/25 03:22:55;;;;;;;;;38.75;31.50;;;;;6.65;100.00;103221.03;5030256;28;49545;-71
2023/01/25 03:25:20;;;;;;;;;47.00;32.50;;;;;6.67;100.00;103225.59;5036154;28;58001;-71
2023/01/25 03:27:45;;;;;;;;;43.50;31.25;;;;;6.65;100.00;103213.19;5032247;28;54745;-72
2023/01/25 03:30:11;;;;;;;;;32.75;29.75;;;;;6.64;100.00;103217.53;5044642;28;49811;-70
2023/01/25 03:32:37;;;;;;;;;46.00;33.75;;;;;6.63;100.00;103214.81;5035519;28;46546;-71
2023/01/25 03:35:03;;;;;;;;;42.25;31.50;;;;;6.62;100.00;103215.63;5037514;28;45382;-71
2023/01/25 03:37:30;;;;;;;;;46.25;35.75;;;;;6.60;100.00;103211.97;5019097;28;45566;-70
2023/01/25 03:39:56;;;;;;;;;52.00;39.25;;;;;6.61;100.00;103217.34;5035358;28;45347;-71
2023/01/25 03:42:22;;;;;;;;;42.00;33.50;;;;;6.63;100.00;103213.09;5035764;28;45564;-71
2023/01/25 03:44:47;;;;;;;;;45.50;33.00;;;;;6.60;100.00;103212.88;5036960;28;45441;-71
2023/01/25 03:47:12;;;;;;;;;40.25;32.50;;;;;6.61;100.00;103209.47;5017160;28;56631;-72
2023/01/25 03:49:38;;;;;;;;;40.00;32.75;;;;;6.62;100.00;103213.91;5037256;28;52915;-72
2023/01/25 03:52:03;;;;;;;;;40.00;30.50;;;;;6.59;100.00;103203.19;5013255;28;57885;-73
2023/01/25 03:54:29;;;;;;;;;45.25;36.25;;;;;6.64;100.00;103207.03;5037146;28;45523;-72
2023/01/25 03:56:54;;;;;;;;;52.75;31.25;;;;;6.63;100.00;103199.97;5027467;28;45473;-72
2023/01/25 03:59:19;;;;;;;;;53.00;37.00;;;;;6.65;100.00;103210.53;5032084;28;45607;-73
2023/01/25 04:01:45;;;;;;;;;59.00;40.50;;;;;6.64;100.00;103208.75;5036595;28;45807;-73
2023/01/25 04:04:10;;;;;;;;;43.25;36.25;;;;;6.62;100.00;103203.41;5014489;28;45620;-73
2023/01/25 04:06:35;;;;;;;;;49.50;35.25;;;;;6.57;100.00;103194.31;5036665;28;45523;-72
2023/01/25 04:09:01;;;;;;;;;52.25;31.75;;;;;6.57;100.00;103196.94;5012572;28;46365;-72
2023/01/25 04:11:26;;;;;;;;;39.25;24.00;;;;;6.53;100.00;103200.16;5033981;28;55848;-72
2023/01/25 04:13:51;;;;;;;;;39.25;30.25;;;;;6.54;100.00;103201.97;5035358;28;45403;-72
2023/01/25 04:16:17;;;;;;;;;47.75;31.25;;;;;6.53;100.00;103203.69;5018159;28;52579;-74
2023/01/25 04:18:42;;;;;;;;;40.00;30.25;;;;;6.52;100.00;103203.59;5036154;28;45368;-74
2023/01/25 04:21:07;;;;;;;;;35.50;30.25;;;;;6.54;100.00;103210.75;5035688;28;57725;-74
2023/01/25 04:23:33;;;;;;;;;41.25;29.25;;;;;6.51;100.00;103197.44;5036284;28;46247;-73
2023/01/25 04:26:01;;;;;;;;;39.00;33.25;;;;;6.55;100.00;103195.91;5011766;28;45528;-72
2023/01/25 04:28:27;;;;;;;;;43.00;34.25;;;;;6.55;100.00;103206.41;5018799;28;45437;-72
2023/01/25 04:30:53;;;;;;;;;47.25;33.75;;;;;6.53;100.00;103203.69;5028955;28;45930;-74
2023/01/25 04:33:19;;;;;;;;;44.25;29.75;;;;;6.49;100.00;103198.13;4998842;28;45511;-73
2023/01/25 04:35:44;;;;;;;;;41.00;31.00;;;;;6.52;100.00;103206.22;5015752;28;46219;-73
2023/01/25 04:38:10;;;;;;;;;34.00;26.50;;;;;6.52;100.00;103208.84;5031390;28;45293;-73
2023/01/25 04:40:35;;;;;;;;;42.50;29.25;;;;;6.52;100.00;103215.00;5031166;28;46569;-72
2023/01/25 04:43:01;;;;;;;;;33.25;27.25;;;;;6.50;100.00;103206.13;5012683;28;45489;-73
2023/01/25 04:45:26;;;;;;;;;41.50;30.00;;;;;6.49;100.00;103195.50;5036097;28;51339;-73
2023/01/25 04:48:03;;;;;;;;;47.00;28.50;;;;;6.51;100.00;103200.06;5016667;28;45725;-74
2023/01/25 04:50:28;;;;;;;;;37.25;25.50;;;;;6.50;100.00;103197.34;5014519;28;45393;-72
2023/01/25 04:52:54;;;;;;;;;46.25;34.00;;;;;6.49;100.00;103192.88;5036474;28;45443;-73
2023/01/25 04:55:19;;;;;;;;;33.50;28.75;;;;;6.46;100.00;103197.97;5035551;28;45776;-72
2023/01/25 04:57:44;;;;;;;;;43.25;27.00;;;;;6.45;100.00;103188.28;5018702;28;46079;-72
2023/01/25 05:00:11;;;;;;;;;37.25;22.25;;;;;6.47;100.00;103192.81;5028890;28;58058;-72
2023/01/25 05:02:36;;;;;;;;;35.50;26.50;;;;;6.46;100.00;103192.72;5018115;28;46390;-72
2023/01/25 05:05:02;;;;;;;;;36.25;27.50;;;;;6.47;100.00;103198.06;5018710;28;45230;-74
2023/01/25 05:07:27;;;;;;;;;29.50;22.00;;;;;6.47;100.00;103194.53;5033312;28;45491;-72
2023/01/25 05:09:53;;;;;;;;;28.75;22.00;;;;;6.44;100.00;103189.97;5035833;28;45923;-72
2023/01/25 05:12:18;;;;;;;;;29.25;20.50;;;;;6.43;100.00;103190.78;5030773;28;45360;-72
2023/01/25 05:14:44;;;;;;;;;30.75;25.50;;;;;6.43;100.00;103193.41;5035106;28;45496;-73
2023/01/25 05:17:09;;;;;;;;;28.75;22.25;;;;;6.42;100.00;103191.59;5035296;28;52032;-72
2023/01/25 05:19:34;;;;;;;;;33.25;26.50;;;;;6.42;100.00;103190.69;5035071;28;45716;-73
2023/01/25 05:22:01;;;;;;;;;26.00;18.00;;;;;6.41;100.00;103179.28;5017115;28;45302;-73
2023/01/25 05:24:31;;;;;;;;;22.25;18.75;;;;;6.45;100.00;103189.19;5015910;28;45720;-72
2023/01/25 05:27:00;;;;;;;;;33.25;22.25;;;;;6.43;100.00;103190.78;5017274;28;45216;-72
2023/01/25 05:29:36;;;;;;;;;28.75;23.50;;;;;6.46;100.00;103179.59;5029388;28;46181;-72
2023/01/25 05:32:06;;;;;;;;;27.00;25.50;;;;;6.44;100.00;103178.56;5017243;28;45396;-72
2023/01/25 05:34:32;;;;;;;;;28.50;19.50;;;;;6.45;100.00;103185.66;5013463;28;45363;-72
2023/01/25 05:36:57;;;;;;;;;29.50;19.25;;;;;6.45;100.00;103180.41;5028619;28;45272;-73
2023/01/25 05:39:22;;;;;;;;;40.50;18.75;;;;;6.44;100.00;103189.06;5034816;28;62585;-72
2023/01/25 05:41:48;;;;;;;;;29.75;23.75;;;;;6.45;100.00;103183.94;5014818;28;58691;-73
2023/01/25 05:44:13;;;;;;;;;33.50;26.25;;;;;6.44;100.00;103183.81;5033618;28;45840;-74
2023/01/25 05:46:39;;;;;;;;;21.25;19.25;;;;;6.46;100.00;103182.22;5028897;28;45353;-74
2023/01/25 05:49:04;;;;;;;;;20.50;14.75;;;;;6.47;100.00;103178.78;5031189;28;46546;-72
2023/01/25 05:51:30;;;;;;;;;22.75;15.25;;;;;6.43;100.00;103180.28;4999827;28;53211;-72
2023/01/25 05:53:55;;;;;;;;;28.25;15.50;;;;;6.44;100.00;103181.19;5034371;28;45460;-75
2023/01/25 05:56:21;;;;;;;;;23.75;17.50;;;;;6.45;100.00;103175.16;5033179;28;45322;-74
2023/01/25 05:58:46;;;;;;;;;19.25;14.00;;;;;6.44;100.00;103178.56;5034725;28;59066;-71
2023/01/25 06:01:11;;;;;;;;;18.75;16.75;;;;;6.45;100.00;103176.06;5016190;28;59729;-74
2023/01/25 06:03:37;;;;;;;;;17.00;12.75;;;;;6.43;100.00;103169.78;5018892;28;45456;-72
2023/01/25 06:06:02;;;;;;;;;11.25;10.25;;;;;6.43;100.00;103176.75;5034365;28;50126;-74
2023/01/25 06:08:29;;;;;;;;;13.75;13.00;;;;;6.38;100.00;103168.56;5038869;28;46010;-74
2023/01/25 06:10:54;;;;;;;;;11.25;10.00;;;;;6.39;100.00;103175.66;5014812;28;45401;-75
2023/01/25 06:13:21;;;;;;;;;22.50;13.00;;;;;6.35;100.00;103171.00;5021236;28;45391;-74
2023/01/25 06:15:56;;;;;;;;;16.00;10.25;;;;;6.32;100.00;103165.56;5038394;28;45658;-74
2023/01/25 06:18:23;;;;;;;;;20.00;13.75;;;;;6.32;100.00;103180.38;5034880;28;59030;-77
2023/01/25 06:20:49;;;;;;;;;10.75;8.75;;;;;6.32;100.00;103167.28;5020420;28;45680;-74
2023/01/25 06:23:14;;;;;;;;;16.50;11.50;;;;;6.34;100.00;103169.19;5019931;28;45504;-74
2023/01/25 06:25:40;;;;;;;;;19.00;12.25;;;;;6.36;100.00;103167.56;5035954;28;47677;-73
2023/01/25 06:28:05;;;;;;;;;14.50;12.75;;;;;6.37;100.00;103166.75;5036180;28;45895;-74
2023/01/25 06:30:30;;;;;;;;;17.50;11.50;;;;;6.38;100.00;103163.31;5033882;28;45362;-74
2023/01/25 06:32:59;;;;;;;;;17.75;13.25;;;;;6.35;100.00;103157.00;5035735;28;52858;-74
2023/01/25 06:35:25;;;;;;;;;15.50;9.50;;;;;6.35;100.00;103172.72;5020682;28;45616;-73
2023/01/25 06:37:50;;;;;;;;;16.50;13.25;;;;;6.29;100.00;103168.91;5019890;28;46766;-73
2023/01/25 06:40:16;;;;;;;;;21.25;14.50;;;;;6.30;100.00;103175.94;5020866;28;56395;-73
2023/01/25 06:42:42;;;;;;;;;18.25;14.00;;;;;6.32;100.00;103173.41;5028194;28;45439;-75
2023/01/25 06:45:08;;;;;;;;;18.25;12.00;;;;;6.29;100.00;103163.66;5049049;28;45641;-72
2023/01/25 06:47:33;;;;;;;;;19.25;10.25;;;;;6.32;100.00;103168.16;5020056;28;45792;-73
2023/01/25 06:49:59;;;;;;;;;16.25;13.50;;;;;6.34;100.00;103168.25;5037601;28;45355;-74
2023/01/25 06:52:24;;;;;;;;;24.25;10.50;;;;;6.33;100.00;103166.44;5019403;28;55573;-73
2023/01/25 06:54:49;;;;;;;;;19.00;13.00;;;;;6.32;100.00;103162.94;5017142;28;45523;-73
2023/01/25 06:57:15;;;;;;;;;15.50;12.75;;;;;6.33;100.00;103158.59;5037489;28;60357;-74
2023/01/25 06:59:40;;;;;;;;;18.00;9.25;;;;;6.29;100.00;103158.41;5035398;28;55832;-74
2023/01/25 07:02:06;;;;;;;;;13.50;6.75;;;;;6.24;100.00;103151.94;5030280;28;47331;-72
2023/01/25 07:04:31;;;;;;;;;14.00;12.25;;;;;6.27;100.00;103156.47;5032993;28;45562;-73
2023/01/25 07:06:56;;;;;;;;;21.50;11.50;;;;;6.29;100.00;103162.75;5036863;28;45281;-73
2023/01/25 07:09:23;;;;;;;;;13.00;9.50;;;;;6.27;100.00;103161.72;5037303;28;57846;-73
2023/01/25 07:11:51;;;;;;;;;11.75;7.75;;;;;6.27;100.00;103157.38;5143401;22;45634;-72
2023/01/25 07:14:16;;;;;;;;;15.75;14.25;;;;;6.27;100.00;103156.47;5043168;28;52037;-71
2023/01/25 07:16:42;;;;;;;;;21.25;12.00;;;;;6.24;100.00;103156.28;5025705;28;57767;-71
2023/01/25 07:19:10;;;;;;;;;17.00;11.00;;;;;6.21;100.00;103153.44;5028145;28;54226;-71
2023/01/25 07:21:35;;;;;;;;;15.50;9.50;;;;;6.22;100.00;103161.41;5027760;28;45540;-73
2023/01/25 07:24:02;;;;;;;;;16.25;14.50;;;;;6.22;100.00;103156.16;5025839;28;45514;-74
2023/01/25 07:26:27;;;;;;;;;16.50;10.75;;;;;6.20;100.00;103152.53;5042591;28;46581;-72
2023/01/25 07:28:53;;;;;;;;;24.25;17.50;;;;;6.21;100.00;103158.69;5025065;28;47313;-72
2023/01/25 07:31:19;;;;;;;;;15.50;13.50;;;;;6.18;100.00;103146.28;5027498;28;45392;-72
2023/01/25 07:33:54;;;;;;;;;13.25;10.00;;;;;6.21;100.00;103148.19;5031523;28;45702;-71
2023/01/25 07:36:20;;;;;;;;;12.25;11.00;;;;;6.18;100.00;103147.97;5029207;28;46300;-71
2023/01/25 07:38:46;;;;;;;;;20.50;12.00;;;;;6.20;100.00;103157.78;5034240;28;45742;-71
2023/01/25 07:41:12;;;;;;;;;15.75;12.50;;;;;6.18;100.00;103158.47;5029447;28;45503;-72
2023/01/25 07:43:37;;;;;;;;;14.00;11.50;;;;;6.18;100.00;103169.91;5032965;28;45571;-71
2023/01/25 07:46:11;;;;;;;;;15.50;13.00;;;;;6.17;100.00;103160.19;5032013;28;45463;-71
2023/01/25 07:48:37;;;;;;;;;20.25;14.00;;;;;6.19;100.00;103149.81;5028944;28;47110;-72
2023/01/25 07:51:11;;;;;;;;;19.25;11.50;;;;;6.18;100.00;103147.97;5029557;28;45510;-71
2023/01/25 07:53:40;;;;;;;;;19.00;16.75;;;;;6.21;100.00;103151.72;5029713;28;45408;-72
2023/01/25 07:56:06;;;;;;;;;14.25;9.00;;;;;6.21;100.00;103159.59;5031362;28;46463;-72
2023/01/25 07:58:32;;;;;;;;;18.75;13.50;;;;;6.22;100.00;103161.41;5026167;28;45323;-72
2023/01/25 08:01:05;;;;;;;;;13.50;13.25;;;;;6.23;100.00;103158.00;5034076;28;45510;-72
2023/01/25 08:03:30;;;;;;;;;17.25;11.00;;;;;6.25;100.00;103166.88;5024155;28;45526;-74
2023/01/25 08:05:56;;;;;;;;;14.00;10.00;;;;;6.25;100.00;103165.97;5034307;28;58447;-74
2023/01/25 08:08:21;;;;;;;;;12.75;11.75;;;;;6.24;100.00;103158.91;5042098;28;45475;-71
2023/01/25 08:10:46;;;;;;;;;20.75;10.50;;;;;6.23;100.00;103165.88;5034118;28;45482;-72
2023/01/25 08:13:12;;;;;;;;;19.75;13.25;;;;;6.19;100.00;103158.59;5027330;28;51260;-72
2023/01/25 08:15:38;;;;;;;;;20.00;15.50;;;;;6.17;100.00;103162.81;5033506;28;45761;-71
2023/01/25 08:18:03;;;;;;;;;18.50;17.00;;;;;6.14;100.00;103160.00;5028042;28;45530;-72
2023/01/25 08:20:29;;;;;;;;;14.50;13.25;;;;;6.13;100.00;103155.56;5032830;28;53684;-72
2023/01/25 08:22:54;;;;;;;;;20.75;15.50;;;;;6.13;100.00;103160.81;5026055;28;53718;-72
2023/01/25 08:25:19;;;;;;;;;23.25;17.00;;;;;6.14;100.00;103154.75;5030624;28;45663;-74
2023/01/25 08:27:45;;;;;;;;;23.50;17.00;;;;;6.18;100.00;103158.47;5029955;28;59083;-72
2023/01/25 08:30:13;;;;;;;;;21.50;17.00;;;;;6.17;100.00;103154.94;5030745;28;56920;-74
2023/01/25 08:32:38;;;;;;;;;22.25;16.50;;;;;6.19;100.00;103155.97;5031410;28;45808;-73
2023/01/25 08:35:04;;;;;;;;;15.25;11.75;;;;;6.20;100.00;103160.41;5031452;28;62517;-72
2023/01/25 08:37:30;;;;;;;;;16.75;14.75;;;;;6.19;100.00;103152.44;5032178;28;46976;-71
2023/01/25 08:39:56;;;;;;;;;22.75;16.25;;;;;6.17;100.00;103144.44;5028124;28;45478;-70
2023/01/25 08:42:22;;;;;;;;;19.50;16.00;;;;;6.15;100.00;103140.84;5033887;28;45308;-71
2023/01/25 08:44:48;;;;;;;;;15.25;11.75;;;;;6.16;100.00;103150.50;5033615;28;46719;-71
2023/01/25 08:47:13;;;;;;;;;27.50;17.25;;;;;6.11;100.00;103140.53;5032600;28;54345;-70
2023/01/25 08:49:38;;;;;;;;;26.75;18.75;;;;;6.14;100.00;103146.91;5029097;28;45438;-71
2023/01/25 08:52:04;;;;;;;;;24.00;16.75;;;;;6.14;100.00;103153.84;5032957;28;45575;-71
2023/01/25 08:54:29;;;;;;;;;15.50;9.25;;;;;6.15;100.00;103150.41;5033759;28;45488;-74
2023/01/25 08:56:55;;;;;;;;;19.50;16.00;;;;;6.12;100.00;103138.00;5046997;28;45600;-74
2023/01/25 08:59:20;;;;;;;;;18.00;12.25;;;;;6.14;100.00;103138.13;5033996;28;45595;-74
2023/01/25 09:01:46;;;;;;;;;18.00;12.50;;;;;6.13;100.00;103152.94;5030327;28;45348;-74
2023/01/25 09:04:11;;;;;;;;;19.50;13.00;;;;;6.11;100.00;103132.66;5025920;28;46612;-71
2023/01/25 09:06:37;;;;;;;;;11.75;9.75;;;;;6.11;100.00;103130.94;5027403;28;57800;-73
2023/01/25 09:09:03;;;;;;;;;16.50;12.25;;;;;6.14;100.00;103148.63;5032518;28;45459;-72
2023/01/25 09:11:29;;;;;;;;;24.50;13.50;;;;;6.14;100.00;103140.75;5032271;28;45582;-72
2023/01/25 09:13:54;;;;;;;;;23.25;15.00;;;;;6.15;100.00;103139.94;5026411;28;45801;-73
2023/01/25 09:16:27;;;;;;;;;18.75;12.00;;;;;6.09;100.00;103131.66;5031379;28;45405;-73
2023/01/25 09:18:53;;;;;;;;;19.00;13.25;;;;;6.13;100.00;103136.31;5025004;28;46566;-71
2023/01/25 09:21:19;;;;;;;;;11.50;9.00;;;;;6.12;100.00;103142.34;5028543;28;45529;-70
2023/01/25 09:23:48;;;;;;;;;16.75;13.75;;;;;6.06;100.00;103134.97;5031831;28;45723;-71
2023/01/25 09:26:14;;;;;;;;;13.25;12.00;;;;;6.07;100.00;103141.13;5029116;28;45548;-71
2023/01/25 09:28:40;;;;;;;;;24.50;15.25;;;;;6.08;100.00;103130.75;5028170;28;45598;-70
2023/01/25 09:31:06;;;;;;;;;23.75;18.00;;;;;6.10;100.00;103130.84;5026831;28;45612;-71
2023/01/25 09:33:37;;;;;;;;;19.50;13.25;;;;;6.10;100.00;103126.50;5039971;28;45872;-71
2023/01/25 09:36:02;;;;;;;;;19.75;16.00;;;;;6.10;100.00;103133.47;5042245;28;45402;-70
2023/01/25 09:38:28;;;;;;;;;16.50;14.25;;;;;6.12;100.00;103124.88;5015976;28;45593;-71
2023/01/25 09:41:21;;;;;;;;;35.25;21.00;;;;;6.13;100.00;103128.44;5040143;28;45394;-71
2023/01/25 09:44:00;;;;;;;;;28.00;20.00;;;;;6.10;100.00;103122.97;5032461;28;45926;-71
2023/01/25 09:46:35;;;;;;;;;24.25;16.50;;;;;6.08;100.00;103128.13;5032006;28;45574;-71
2023/01/25 09:49:24;;;;;;;;;21.50;13.75;;;;;6.09;100.00;103129.03;5030405;28;45464;-71
2023/01/25 09:52:07;;;;;;;;;32.75;18.75;;;;;6.11;100.00;103127.41;5023965;28;45608;-70
2023/01/25 09:54:40;;;;;;;;;21.25;16.00;;;;;6.08;100.00;103140.34;5023723;28;46529;-73
2023/01/25 09:57:36;;;;;;;;;13.00;10.00;;;;;6.02;100.00;103133.88;5027545;28;45494;-72
2023/01/25 10:00:19;;;;;;;;;21.00;15.00;;;;;5.99;100.00;103138.00;5020065;28;45473;-72
2023/01/25 10:03:01;;;;;;;;;35.00;19.50;;;;;5.97;100.00;103144.88;5024280;28;45618;-73
2023/01/25 10:05:31;;;;;;;;;19.25;14.75;;;;;5.95;100.00;103142.13;5023990;28;45887;-71
2023/01/25 10:08:19;;;;;;;;;18.00;15.50;;;;;5.93;100.00;103146.38;5031011;28;45220;-73
2023/01/25 10:10:45;;;;;;;;;16.75;13.00;;;;;5.93;100.00;103140.22;5044332;28;45435;-72
2023/01/25 10:13:13;;;;;;;;;30.50;15.25;;;;;5.89;100.00;103141.69;5012116;28;45566;-71
2023/01/25 10:15:43;;;;;;;;;21.00;13.00;;;;;5.84;100.00;103135.22;5048361;28;46914;-71
2023/01/25 10:18:29;;;;;;;;;24.75;12.75;;;;;5.86;100.00;103144.13;5028184;28;45480;-72
2023/01/25 10:20:57;;;;;;;;;25.50;17.25;;;;;5.87;100.00;103139.78;5022494;28;45467;-72
2023/01/25 10:23:33;;;;;;;;;13.50;10.75;;;;;5.88;100.00;103139.88;5029428;28;45501;-70
2023/01/25 10:26:24;;;;;;;;;18.00;14.00;;;;;5.92;100.00;103141.94;5032172;28;46664;-71
2023/01/25 10:28:56;;;;;;;;;23.75;14.00;;;;;5.95;100.00;103143.84;5026833;28;45727;-71
2023/01/25 10:31:31;;;;;;;;;11.25;8.50;;;;;5.94;100.00;103142.94;5018651;28;45334;-71
2023/01/25 10:33:58;;;;;;;;;20.50;10.00;;;;;5.93;100.00;103141.13;5022373;28;45515;-71
2023/01/25 10:36:28;;;;;;;;;12.00;12.00;;;;;5.92;100.00;103139.31;5027567;28;45565;-71
2023/01/25 10:38:58;;;;;;;;;21.00;15.25;;;;;5.90;100.00;103133.00;5029291;28;45590;-71
2023/01/25 10:41:29;;;;;;;;;17.50;13.25;;;;;5.92;100.00;103141.94;5023251;28;45515;-70
2023/01/25 10:46:39;;;;;;;;;21.00;13.75;;;;;5.96;100.00;103135.16;5019300;28;45789;-72
2023/01/25 10:49:20;;;;;;;;;24.00;15.25;;;;;5.97;100.00;103137.91;5025087;28;47180;-73
2023/01/25 10:51:46;;;;;;;;;26.00;17.25;;;;;5.96;100.00;103133.44;5033602;28;46722;-72
2023/01/25 10:54:14;;;;;;;;;23.75;12.75;;;;;5.98;100.00;103131.84;5028058;28;45478;-72
2023/01/25 10:56:41;;;;;;;;;18.00;13.00;;;;;5.98;100.00;103126.63;5026897;28;46040;-72
2023/01/25 10:59:24;;;;;;;;;17.00;12.25;;;;;5.98;100.00;103126.63;5017034;28;45449;-70
2023/01/25 11:01:50;;;;;;;;;9.00;6.50;;;;;6.01;100.00;103125.88;5034492;28;45558;-71
2023/01/25 11:04:37;;;;;;;;;27.50;13.50;;;;;6.04;100.00;103118.25;5027946;28;45571;-71
2023/01/25 11:07:04;;;;;;;;;16.50;13.50;;;;;6.02;100.00;103110.28;5031611;28;46700;-70
2023/01/25 11:09:35;;;;;;;;;20.25;16.25;;;;;6.00;100.00;103105.72;5030963;28;45385;-72
2023/01/25 11:12:03;;;;;;;;;23.50;17.50;;;;;5.96;100.00;103096.75;5033355;28;45524;-70
2023/01/25 11:14:30;;;;;;;;;21.50;21.00;;;;;6.01;100.00;103110.16;5041943;28;45648;-69
2023/01/25 11:16:58;;;;;;;;;34.50;27.75;;;;;5.99;100.00;103096.94;5030404;28;46783;-70